Aviation Digital Data Service (ADDS)

Output produced by METARs form (0859 UTC 09 April 2020)
found at http://aviationweather.gov/metar/data/
 
METAR text: EDDW 090850Z 27004KT 210V320 CAVOK 15/05 Q1025 NOSIG
Conditions at: EDDW (BREMEN , DE) observed 0850 UTC 09 April 2020
Temperature: 15.0°C (59°F)
Dewpoint: 5.0°C (41°F) [RH = 51%]
Pressure (altimeter): 30.27 inches Hg (1025.0 mb)
Winds: from the W (270 degrees) at 5 MPH (4 knots; 2.1 m/s)
Visibility: 6 or more miles (10+ km)
Ceiling: ceiling and visibility are OK
Clouds: unknown
Weather: no significant weather observed at this time

METAR text: EDDW 090820Z 26003KT 210V320 CAVOK 14/05 Q1025 NOSIG
Conditions at: EDDW (BREMEN , DE) observed 0820 UTC 09 April 2020
Temperature: 14.0°C (57°F)
Dewpoint: 5.0°C (41°F) [RH = 55%]
Pressure (altimeter): 30.27 inches Hg (1025.0 mb)
Winds: from the W (260 degrees) at 3 MPH (3 knots; 1.5 m/s)
Visibility: 6 or more miles (10+ km)
Ceiling: ceiling and visibility are OK
Clouds: unknown
Weather: no significant weather observed at this time

Forecast for: EDDW (BREMEN , DE)
Text: TAF EDDW 090500Z 0906/1006 31004KT 6000 NSC
Forecast period: 0600 to 1000 UTC 09 April 2020
Forecast type: FROM: standard forecast or significant change
Winds: from the NW (310 degrees) at 5 MPH (4 knots; 2.1 m/s)
Visibility: 4 miles (6 km)
Ceiling: unknown
Clouds: missing
Weather: no significant weather forecast for this period
Text: BECMG 0910/0912 34010KT
Forecast period: 1000 to 2000 UTC 09 April 2020
Forecast type: BECOMING: Conditions expected to become as follows by 1200 UTC 09 April 2020
Winds: from the NNW (340 degrees) at 12 MPH (10 knots; 5.1 m/s)
Visibility: 4 miles (6 km)
Ceiling: unknown
Clouds: missing
Weather: no significant weather forecast for this period
Text: PROB30
Forecast period: 1300 to 1600 UTC 09 April 2020
Forecast type: TEMPORARY: The following changes expected for less than half the time period
Winds: from the N (350 degrees) at 17 MPH (15 knots; 7.7 m/s)
Visibility: missing
Ceiling: unknown
Clouds: missing
Weather: no significant weather forecast for this period
Text: TEMPO 0913/0916 35015KT
Forecast period: 2000 UTC 09 April 2020 to 0600 UTC 10 April 2020
Forecast type: BECOMING: Conditions expected to become as follows by 2200 UTC 09 April 2020
Winds: from the N (360 degrees) at 5 MPH (4 knots; 2.1 m/s)
Visibility: 4 miles (6 km)
Ceiling: unknown
Clouds: missing
Weather: no significant weather forecast for this period
Text: BECMG 0920/0922 36004KT
Forecast period: 0200 to 0600 UTC 10 April 2020
Forecast type: TEMPORARY: The following changes expected for less than half the time period
Visibility: 1.24 miles (2.00 km)
Ceiling: unknown
Clouds: missing
Weather: BR  (mist)